sensor_id;sensor_type;location;lat;lon;timestamp;temperature;humidity
16666;DHT22;8446;50.998;6.250;2022-09-29T00:00:52;6.20;99.90
16666;DHT22;8446;50.998;6.250;2022-09-29T00:03:20;6.20;99.90
16666;DHT22;8446;50.998;6.250;2022-09-29T00:05:48;6.30;99.90
16666;DHT22;8446;50.998;6.250;2022-09-29T00:08:16;6.20;99.90
16666;DHT22;8446;50.998;6.250;2022-09-29T00:10:44;6.10;99.90
16666;DHT22;8446;50.998;6.250;2022-09-29T00:13:11;6.10;99.90
16666;DHT22;8446;50.998;6.250;2022-09-29T00:15:40;6.10;99.90
16666;DHT22;8446;50.998;6.250;2022-09-29T00:18:07;6.00;99.90
16666;DHT22;8446;50.998;6.250;2022-09-29T00:20:35;5.80;99.90
16666;DHT22;8446;50.998;6.250;2022-09-29T00:23:03;5.80;99.90
16666;DHT22;8446;50.998;6.250;2022-09-29T00:25:29;5.80;99.90
16666;DHT22;8446;50.998;6.250;2022-09-29T00:27:56;5.80;99.90
16666;DHT22;8446;50.998;6.250;2022-09-29T00:30:23;5.80;99.90
16666;DHT22;8446;50.998;6.250;2022-09-29T00:32:51;5.80;99.90
16666;DHT22;8446;50.998;6.250;2022-09-29T00:35:18;5.70;99.90
16666;DHT22;8446;50.998;6.250;2022-09-29T00:37:45;5.80;99.90
16666;DHT22;8446;50.998;6.250;2022-09-29T00:40:11;5.70;99.90
16666;DHT22;8446;50.998;6.250;2022-09-29T00:42:38;5.60;99.90
16666;DHT22;8446;50.998;6.250;2022-09-29T00:45:14;5.60;99.90
16666;DHT22;8446;50.998;6.250;2022-09-29T00:47:45;5.60;99.90
16666;DHT22;8446;50.998;6.250;2022-09-29T00:50:17;5.60;99.90
16666;DHT22;8446;50.998;6.250;2022-09-29T00:52:48;5.60;99.90
16666;DHT22;8446;50.998;6.250;2022-09-29T00:55:21;5.50;99.90
16666;DHT22;8446;50.998;6.250;2022-09-29T00:57:52;5.50;99.90
16666;DHT22;8446;50.998;6.250;2022-09-29T01:00:21;5.40;99.90
16666;DHT22;8446;50.998;6.250;2022-09-29T01:02:50;5.50;99.90
16666;DHT22;8446;50.998;6.250;2022-09-29T01:05:22;5.40;99.90
16666;DHT22;8446;50.998;6.250;2022-09-29T01:07:51;5.30;99.90
16666;DHT22;8446;50.998;6.250;2022-09-29T01:10:18;5.20;99.90
16666;DHT22;8446;50.998;6.250;2022-09-29T01:12:46;5.20;99.90
16666;DHT22;8446;50.998;6.250;2022-09-29T01:15:16;5.10;99.90
16666;DHT22;8446;50.998;6.250;2022-09-29T01:17:43;4.90;99.90
16666;DHT22;8446;50.998;6.250;2022-09-29T01:20:13;4.90;99.90
16666;DHT22;8446;50.998;6.250;2022-09-29T01:23:13;4.70;99.90
16666;DHT22;8446;50.998;6.250;2022-09-29T01:26:17;4.80;99.90
16666;DHT22;8446;50.998;6.250;2022-09-29T01:32:07;4.70;99.90
16666;DHT22;8446;50.998;6.250;2022-09-29T01:34:42;4.70;99.90
16666;DHT22;8446;50.998;6.250;2022-09-29T01:37:15;4.70;99.90
16666;DHT22;8446;50.998;6.250;2022-09-29T01:39:50;4.90;99.90
16666;DHT22;8446;50.998;6.250;2022-09-29T01:42:23;4.80;99.90
16666;DHT22;8446;50.998;6.250;2022-09-29T01:44:54;4.80;99.90
16666;DHT22;8446;50.998;6.250;2022-09-29T01:47:26;4.80;99.90
16666;DHT22;8446;50.998;6.250;2022-09-29T01:49:58;4.90;99.90
16666;DHT22;8446;50.998;6.250;2022-09-29T01:52:29;4.80;99.90
16666;DHT22;8446;50.998;6.250;2022-09-29T01:54:59;4.90;99.90
16666;DHT22;8446;50.998;6.250;2022-09-29T01:57:30;4.90;99.90
16666;DHT22;8446;50.998;6.250;2022-09-29T02:00:03;4.90;99.90
16666;DHT22;8446;50.998;6.250;2022-09-29T02:02:38;4.80;99.90
16666;DHT22;8446;50.998;6.250;2022-09-29T02:05:11;4.80;99.90
16666;DHT22;8446;50.998;6.250;2022-09-29T02:07:42;4.90;99.90
16666;DHT22;8446;50.998;6.250;2022-09-29T02:10:12;4.80;99.90
16666;DHT22;8446;50.998;6.250;2022-09-29T02:12:43;4.80;99.90
16666;DHT22;8446;50.998;6.250;2022-09-29T02:15:13;4.80;99.90
16666;DHT22;8446;50.998;6.250;2022-09-29T02:17:47;4.80;99.90
16666;DHT22;8446;50.998;6.250;2022-09-29T02:20:16;4.70;99.90
16666;DHT22;8446;50.998;6.250;2022-09-29T02:22:43;4.60;99.90
16666;DHT22;8446;50.998;6.250;2022-09-29T02:25:12;4.70;99.90
16666;DHT22;8446;50.998;6.250;2022-09-29T02:27:41;4.60;99.90
16666;DHT22;8446;50.998;6.250;2022-09-29T02:30:09;4.50;99.90
16666;DHT22;8446;50.998;6.250;2022-09-29T02:32:36;4.40;99.90
16666;DHT22;8446;50.998;6.250;2022-09-29T02:35:07;4.40;99.90
16666;DHT22;8446;50.998;6.250;2022-09-29T02:37:40;4.40;99.90
16666;DHT22;8446;50.998;6.250;2022-09-29T02:40:21;4.30;99.90
16666;DHT22;8446;50.998;6.250;2022-09-29T02:43:02;4.40;99.90
16666;DHT22;8446;50.998;6.250;2022-09-29T02:45:39;4.40;99.90
16666;DHT22;8446;50.998;6.250;2022-09-29T02:48:47;4.30;99.90
16666;DHT22;8446;50.998;6.250;2022-09-29T02:51:20;4.30;99.90
16666;DHT22;8446;50.998;6.250;2022-09-29T02:54:03;4.20;99.90
16666;DHT22;8446;50.998;6.250;2022-09-29T02:56:37;4.10;99.90
16666;DHT22;8446;50.998;6.250;2022-09-29T02:59:10;4.00;99.90
16666;DHT22;8446;50.998;6.250;2022-09-29T03:01:47;3.80;99.90
16666;DHT22;8446;50.998;6.250;2022-09-29T03:04:15;3.80;99.90
16666;DHT22;8446;50.998;6.250;2022-09-29T03:06:43;3.80;99.90
16666;DHT22;8446;50.998;6.250;2022-09-29T03:09:10;3.70;99.90
16666;DHT22;8446;50.998;6.250;2022-09-29T03:11:37;3.80;99.90
16666;DHT22;8446;50.998;6.250;2022-09-29T03:14:04;3.90;99.90
16666;DHT22;8446;50.998;6.250;2022-09-29T03:16:32;3.90;99.90
16666;DHT22;8446;50.998;6.250;2022-09-29T03:18:59;3.90;99.90
16666;DHT22;8446;50.998;6.250;2022-09-29T03:21:26;4.00;99.90
16666;DHT22;8446;50.998;6.250;2022-09-29T03:23:54;4.00;99.90
16666;DHT22;8446;50.998;6.250;2022-09-29T03:26:21;4.00;99.90
16666;DHT22;8446;50.998;6.250;2022-09-29T03:28:48;4.00;99.90
16666;DHT22;8446;50.998;6.250;2022-09-29T03:31:15;4.00;99.90
16666;DHT22;8446;50.998;6.250;2022-09-29T03:33:42;4.00;99.90
16666;DHT22;8446;50.998;6.250;2022-09-29T03:36:09;4.00;99.90
16666;DHT22;8446;50.998;6.250;2022-09-29T03:38:37;4.10;99.90
16666;DHT22;8446;50.998;6.250;2022-09-29T03:41:06;4.00;99.90
16666;DHT22;8446;50.998;6.250;2022-09-29T03:43:33;3.60;99.90
16666;DHT22;8446;50.998;6.250;2022-09-29T03:46:00;3.50;99.90
16666;DHT22;8446;50.998;6.250;2022-09-29T03:48:26;3.50;99.90
16666;DHT22;8446;50.998;6.250;2022-09-29T03:50:56;3.60;99.90
16666;DHT22;8446;50.998;6.250;2022-09-29T03:53:23;3.70;99.90
16666;DHT22;8446;50.998;6.250;2022-09-29T03:55:50;3.60;99.90
16666;DHT22;8446;50.998;6.250;2022-09-29T03:58:18;3.70;99.90
16666;DHT22;8446;50.998;6.250;2022-09-29T04:00:47;3.60;99.90
16666;DHT22;8446;50.998;6.250;2022-09-29T04:03:14;3.80;99.90
16666;DHT22;8446;50.998;6.250;2022-09-29T04:05:43;3.60;99.90
16666;DHT22;8446;50.998;6.250;2022-09-29T04:08:10;3.70;99.90
16666;DHT22;8446;50.998;6.250;2022-09-29T04:10:37;3.60;99.90
16666;DHT22;8446;50.998;6.250;2022-09-29T04:13:05;3.70;99.90
16666;DHT22;8446;50.998;6.250;2022-09-29T04:15:33;3.70;99.90
16666;DHT22;8446;50.998;6.250;2022-09-29T04:18:00;3.70;99.90
16666;DHT22;8446;50.998;6.250;2022-09-29T04:20:27;3.70;99.90
16666;DHT22;8446;50.998;6.250;2022-09-29T04:22:54;3.70;99.90
16666;DHT22;8446;50.998;6.250;2022-09-29T04:25:20;3.60;99.90
16666;DHT22;8446;50.998;6.250;2022-09-29T04:27:47;3.50;99.90
16666;DHT22;8446;50.998;6.250;2022-09-29T04:30:14;3.40;99.90
16666;DHT22;8446;50.998;6.250;2022-09-29T04:32:42;3.40;99.90
16666;DHT22;8446;50.998;6.250;2022-09-29T04:35:10;3.50;99.90
16666;DHT22;8446;50.998;6.250;2022-09-29T04:37:36;3.50;99.90
16666;DHT22;8446;50.998;6.250;2022-09-29T04:40:04;3.50;99.90
16666;DHT22;8446;50.998;6.250;2022-09-29T04:42:32;3.40;99.90
16666;DHT22;8446;50.998;6.250;2022-09-29T04:44:59;3.40;99.90
16666;DHT22;8446;50.998;6.250;2022-09-29T04:47:26;3.40;99.90
16666;DHT22;8446;50.998;6.250;2022-09-29T04:49:54;3.40;99.90
16666;DHT22;8446;50.998;6.250;2022-09-29T04:52:21;3.40;99.90
16666;DHT22;8446;50.998;6.250;2022-09-29T04:54:48;3.60;99.90
16666;DHT22;8446;50.998;6.250;2022-09-29T04:57:14;3.50;99.90
16666;DHT22;8446;50.998;6.250;2022-09-29T04:59:41;3.40;99.90
16666;DHT22;8446;50.998;6.250;2022-09-29T05:02:08;3.40;99.90
16666;DHT22;8446;50.998;6.250;2022-09-29T05:04:35;3.40;99.90
16666;DHT22;8446;50.998;6.250;2022-09-29T05:07:03;3.50;99.90
16666;DHT22;8446;50.998;6.250;2022-09-29T05:09:30;3.40;99.90
16666;DHT22;8446;50.998;6.250;2022-09-29T05:11:56;3.40;99.90
16666;DHT22;8446;50.998;6.250;2022-09-29T05:14:23;3.40;99.90
16666;DHT22;8446;50.998;6.250;2022-09-29T05:16:52;3.30;99.90
16666;DHT22;8446;50.998;6.250;2022-09-29T05:19:19;3.40;99.90
16666;DHT22;8446;50.998;6.250;2022-09-29T05:21:46;3.30;99.90
16666;DHT22;8446;50.998;6.250;2022-09-29T05:24:14;3.40;99.90
16666;DHT22;8446;50.998;6.250;2022-09-29T05:26:41;3.40;99.90
16666;DHT22;8446;50.998;6.250;2022-09-29T05:29:07;3.40;99.90
16666;DHT22;8446;50.998;6.250;2022-09-29T05:31:34;3.40;99.90
16666;DHT22;8446;50.998;6.250;2022-09-29T05:34:01;3.50;99.90
16666;DHT22;8446;50.998;6.250;2022-09-29T05:36:28;3.40;99.90
16666;DHT22;8446;50.998;6.250;2022-09-29T05:38:55;3.40;99.90
16666;DHT22;8446;50.998;6.250;2022-09-29T05:41:23;3.20;99.90
16666;DHT22;8446;50.998;6.250;2022-09-29T05:43:50;3.20;99.90
16666;DHT22;8446;50.998;6.250;2022-09-29T05:46:18;3.20;99.90
16666;DHT22;8446;50.998;6.250;2022-09-29T05:48:45;3.30;99.90
16666;DHT22;8446;50.998;6.250;2022-09-29T05:51:14;3.20;99.90
16666;DHT22;8446;50.998;6.250;2022-09-29T05:53:41;3.30;99.90
16666;DHT22;8446;50.998;6.250;2022-09-29T05:56:09;3.20;99.90
16666;DHT22;8446;50.998;6.250;2022-09-29T05:58:38;3.20;99.90
16666;DHT22;8446;50.998;6.250;2022-09-29T06:01:06;3.30;99.90
16666;DHT22;8446;50.998;6.250;2022-09-29T06:03:33;3.30;99.90
16666;DHT22;8446;50.998;6.250;2022-09-29T06:06:05;3.20;99.90
16666;DHT22;8446;50.998;6.250;2022-09-29T06:08:31;3.40;99.90
16666;DHT22;8446;50.998;6.250;2022-09-29T06:11:02;3.50;99.90
16666;DHT22;8446;50.998;6.250;2022-09-29T06:13:30;3.70;99.90
16666;DHT22;8446;50.998;6.250;2022-09-29T06:15:59;3.90;99.90
16666;DHT22;8446;50.998;6.250;2022-09-29T06:18:26;4.00;99.90
16666;DHT22;8446;50.998;6.250;2022-09-29T06:20:53;4.00;99.90
16666;DHT22;8446;50.998;6.250;2022-09-29T06:23:20;4.00;99.90
16666;DHT22;8446;50.998;6.250;2022-09-29T06:25:46;4.10;99.90
16666;DHT22;8446;50.998;6.250;2022-09-29T06:28:13;4.10;99.90
16666;DHT22;8446;50.998;6.250;2022-09-29T06:30:40;4.10;99.90
16666;DHT22;8446;50.998;6.250;2022-09-29T06:33:08;4.20;99.90
16666;DHT22;8446;50.998;6.250;2022-09-29T06:35:35;4.30;99.90
16666;DHT22;8446;50.998;6.250;2022-09-29T06:38:20;4.40;99.90
16666;DHT22;8446;50.998;6.250;2022-09-29T06:40:46;4.60;99.90
16666;DHT22;8446;50.998;6.250;2022-09-29T06:43:13;4.70;99.90
16666;DHT22;8446;50.998;6.250;2022-09-29T06:45:40;4.70;99.90
16666;DHT22;8446;50.998;6.250;2022-09-29T06:48:08;4.80;99.90
16666;DHT22;8446;50.998;6.250;2022-09-29T06:50:35;4.90;99.90
16666;DHT22;8446;50.998;6.250;2022-09-29T06:53:02;4.90;99.90
16666;DHT22;8446;50.998;6.250;2022-09-29T06:55:29;5.00;99.90
16666;DHT22;8446;50.998;6.250;2022-09-29T06:57:55;5.20;99.90
16666;DHT22;8446;50.998;6.250;2022-09-29T07:00:22;5.30;99.90
16666;DHT22;8446;50.998;6.250;2022-09-29T07:02:49;5.50;99.90
16666;DHT22;8446;50.998;6.250;2022-09-29T07:05:17;5.70;99.90
16666;DHT22;8446;50.998;6.250;2022-09-29T07:07:47;5.90;99.90
16666;DHT22;8446;50.998;6.250;2022-09-29T07:10:14;6.00;99.90
16666;DHT22;8446;50.998;6.250;2022-09-29T07:12:41;6.20;99.90
16666;DHT22;8446;50.998;6.250;2022-09-29T07:15:11;6.30;99.90
16666;DHT22;8446;50.998;6.250;2022-09-29T07:17:38;6.40;99.90
16666;DHT22;8446;50.998;6.250;2022-09-29T07:20:06;6.60;99.90
16666;DHT22;8446;50.998;6.250;2022-09-29T07:22:34;6.60;99.90
16666;DHT22;8446;50.998;6.250;2022-09-29T07:25:01;6.90;99.90
16666;DHT22;8446;50.998;6.250;2022-09-29T07:27:27;6.90;99.90
16666;DHT22;8446;50.998;6.250;2022-09-29T07:29:54;6.90;99.90
16666;DHT22;8446;50.998;6.250;2022-09-29T07:32:21;7.10;99.90
16666;DHT22;8446;50.998;6.250;2022-09-29T07:34:48;7.20;99.90
16666;DHT22;8446;50.998;6.250;2022-09-29T07:37:14;7.30;99.90
16666;DHT22;8446;50.998;6.250;2022-09-29T07:39:43;7.40;99.90
16666;DHT22;8446;50.998;6.250;2022-09-29T07:42:10;7.50;99.90
16666;DHT22;8446;50.998;6.250;2022-09-29T07:44:37;7.60;99.90
16666;DHT22;8446;50.998;6.250;2022-09-29T07:47:03;7.70;99.90
16666;DHT22;8446;50.998;6.250;2022-09-29T07:49:30;7.90;99.90
16666;DHT22;8446;50.998;6.250;2022-09-29T07:51:57;8.00;99.90
16666;DHT22;8446;50.998;6.250;2022-09-29T07:54:24;8.20;99.90
16666;DHT22;8446;50.998;6.250;2022-09-29T07:56:52;8.20;99.90
16666;DHT22;8446;50.998;6.250;2022-09-29T07:59:19;8.30;99.90
16666;DHT22;8446;50.998;6.250;2022-09-29T08:01:45;8.50;99.90
16666;DHT22;8446;50.998;6.250;2022-09-29T08:04:12;8.50;99.90
16666;DHT22;8446;50.998;6.250;2022-09-29T08:06:39;8.60;99.90
16666;DHT22;8446;50.998;6.250;2022-09-29T08:09:07;8.70;99.90
16666;DHT22;8446;50.998;6.250;2022-09-29T08:11:37;8.80;99.90
16666;DHT22;8446;50.998;6.250;2022-09-29T08:14:06;8.90;99.90
16666;DHT22;8446;50.998;6.250;2022-09-29T08:16:34;9.30;99.90
16666;DHT22;8446;50.998;6.250;2022-09-29T08:19:01;9.50;99.90
16666;DHT22;8446;50.998;6.250;2022-09-29T08:21:29;9.50;99.90
16666;DHT22;8446;50.998;6.250;2022-09-29T08:24:01;9.60;99.90
16666;DHT22;8446;50.998;6.250;2022-09-29T08:26:30;9.50;99.90
16666;DHT22;8446;50.998;6.250;2022-09-29T08:28:57;9.90;99.90
16666;DHT22;8446;50.998;6.250;2022-09-29T08:31:25;10.20;99.90
16666;DHT22;8446;50.998;6.250;2022-09-29T08:33:53;10.30;99.90
16666;DHT22;8446;50.998;6.250;2022-09-29T08:36:22;10.00;99.90
16666;DHT22;8446;50.998;6.250;2022-09-29T08:38:50;10.50;99.90
16666;DHT22;8446;50.998;6.250;2022-09-29T08:41:39;10.60;99.90
16666;DHT22;8446;50.998;6.250;2022-09-29T08:44:13;10.60;99.90
16666;DHT22;8446;50.998;6.250;2022-09-29T08:46:45;10.40;99.90
16666;DHT22;8446;50.998;6.250;2022-09-29T08:49:17;10.80;99.90
16666;DHT22;8446;50.998;6.250;2022-09-29T08:51:48;10.60;99.90
16666;DHT22;8446;50.998;6.250;2022-09-29T08:54:23;10.80;99.90
16666;DHT22;8446;50.998;6.250;2022-09-29T08:56:52;11.10;99.90
16666;DHT22;8446;50.998;6.250;2022-09-29T08:59:19;11.40;99.90
16666;DHT22;8446;50.998;6.250;2022-09-29T09:01:59;11.70;99.90
16666;DHT22;8446;50.998;6.250;2022-09-29T09:04:43;11.50;99.90
16666;DHT22;8446;50.998;6.250;2022-09-29T09:07:18;12.10;99.90
16666;DHT22;8446;50.998;6.250;2022-09-29T09:09:55;11.60;99.90
16666;DHT22;8446;50.998;6.250;2022-09-29T09:18:55;11.90;99.90
16666;DHT22;8446;50.998;6.250;2022-09-29T09:21:29;12.30;99.90
16666;DHT22;8446;50.998;6.250;2022-09-29T09:24:07;12.60;99.90
16666;DHT22;8446;50.998;6.250;2022-09-29T09:26:42;12.70;99.90
16666;DHT22;8446;50.998;6.250;2022-09-29T09:29:15;12.10;99.90
16666;DHT22;8446;50.998;6.250;2022-09-29T09:31:47;12.20;99.90
16666;DHT22;8446;50.998;6.250;2022-09-29T09:34:21;12.40;99.90
16666;DHT22;8446;50.998;6.250;2022-09-29T09:36:51;12.70;99.90
16666;DHT22;8446;50.998;6.250;2022-09-29T09:39:24;12.70;99.90
16666;DHT22;8446;50.998;6.250;2022-09-29T09:41:55;12.90;99.90
16666;DHT22;8446;50.998;6.250;2022-09-29T09:44:26;12.90;99.90
16666;DHT22;8446;50.998;6.250;2022-09-29T09:46:57;13.20;99.90
16666;DHT22;8446;50.998;6.250;2022-09-29T09:49:30;12.60;99.90
16666;DHT22;8446;50.998;6.250;2022-09-29T09:52:01;12.80;99.90
16666;DHT22;8446;50.998;6.250;2022-09-29T09:54:32;13.70;99.90
16666;DHT22;8446;50.998;6.250;2022-09-29T10:00:04;13.80;99.90
16666;DHT22;8446;50.998;6.250;2022-09-29T10:02:41;14.10;99.90
16666;DHT22;8446;50.998;6.250;2022-09-29T10:05:12;13.90;99.90
16666;DHT22;8446;50.998;6.250;2022-09-29T10:07:41;13.30;99.90
16666;DHT22;8446;50.998;6.250;2022-09-29T10:10:16;14.10;99.90
16666;DHT22;8446;50.998;6.250;2022-09-29T10:12:43;14.50;99.90
16666;DHT22;8446;50.998;6.250;2022-09-29T10:15:23;14.30;99.90
16666;DHT22;8446;50.998;6.250;2022-09-29T10:18:00;14.50;99.90
16666;DHT22;8446;50.998;6.250;2022-09-29T10:20:34;14.80;99.90
16666;DHT22;8446;50.998;6.250;2022-09-29T10:23:27;14.50;99.90
16666;DHT22;8446;50.998;6.250;2022-09-29T10:25:57;14.50;99.90
16666;DHT22;8446;50.998;6.250;2022-09-29T10:28:27;14.80;99.90
16666;DHT22;8446;50.998;6.250;2022-09-29T10:30:56;14.90;99.90
16666;DHT22;8446;50.998;6.250;2022-09-29T10:33:23;13.90;99.90
16666;DHT22;8446;50.998;6.250;2022-09-29T10:36:05;13.90;99.90
16666;DHT22;8446;50.998;6.250;2022-09-29T10:38:33;14.50;99.90
16666;DHT22;8446;50.998;6.250;2022-09-29T10:41:04;13.80;99.90
16666;DHT22;8446;50.998;6.250;2022-09-29T10:43:35;13.90;99.90
16666;DHT22;8446;50.998;6.250;2022-09-29T10:46:04;14.20;99.90
16666;DHT22;8446;50.998;6.250;2022-09-29T10:48:31;14.20;99.90
16666;DHT22;8446;50.998;6.250;2022-09-29T10:51:01;14.10;99.90
16666;DHT22;8446;50.998;6.250;2022-09-29T10:53:34;14.00;99.90
16666;DHT22;8446;50.998;6.250;2022-09-29T10:56:08;14.30;99.90
16666;DHT22;8446;50.998;6.250;2022-09-29T10:58:38;14.50;99.90
16666;DHT22;8446;50.998;6.250;2022-09-29T11:01:07;14.60;99.90
16666;DHT22;8446;50.998;6.250;2022-09-29T11:03:37;14.70;99.90
16666;DHT22;8446;50.998;6.250;2022-09-29T11:06:10;15.30;99.90
16666;DHT22;8446;50.998;6.250;2022-09-29T11:08:59;15.10;99.90
16666;DHT22;8446;50.998;6.250;2022-09-29T11:11:28;15.00;99.90
16666;DHT22;8446;50.998;6.250;2022-09-29T11:13:56;15.10;99.90
16666;DHT22;8446;50.998;6.250;2022-09-29T11:16:27;15.10;99.90
16666;DHT22;8446;50.998;6.250;2022-09-29T11:18:57;14.60;99.90
16666;DHT22;8446;50.998;6.250;2022-09-29T11:21:56;14.60;99.90
16666;DHT22;8446;50.998;6.250;2022-09-29T11:24:39;14.40;99.90
16666;DHT22;8446;50.998;6.250;2022-09-29T11:27:13;14.00;99.90
16666;DHT22;8446;50.998;6.250;2022-09-29T11:29:51;13.80;99.90
16666;DHT22;8446;50.998;6.250;2022-09-29T11:32:31;14.70;99.90
16666;DHT22;8446;50.998;6.250;2022-09-29T11:35:17;14.70;99.90
16666;DHT22;8446;50.998;6.250;2022-09-29T11:38:07;14.40;99.90
16666;DHT22;8446;50.998;6.250;2022-09-29T11:40:50;15.00;99.90
16666;DHT22;8446;50.998;6.250;2022-09-29T11:43:29;15.10;99.90
16666;DHT22;8446;50.998;6.250;2022-09-29T11:46:10;15.30;99.90
16666;DHT22;8446;50.998;6.250;2022-09-29T11:49:00;15.00;99.90
16666;DHT22;8446;50.998;6.250;2022-09-29T11:51:43;14.50;99.90
16666;DHT22;8446;50.998;6.250;2022-09-29T11:54:40;14.70;99.90
16666;DHT22;8446;50.998;6.250;2022-09-29T11:57:11;14.60;99.90
16666;DHT22;8446;50.998;6.250;2022-09-29T12:00:00;14.80;99.90
16666;DHT22;8446;50.998;6.250;2022-09-29T12:02:58;15.20;99.90
16666;DHT22;8446;50.998;6.250;2022-09-29T12:05:37;15.60;99.90
16666;DHT22;8446;50.998;6.250;2022-09-29T12:08:15;16.10;99.90
16666;DHT22;8446;50.998;6.250;2022-09-29T12:10:54;16.40;99.90
16666;DHT22;8446;50.998;6.250;2022-09-29T12:13:29;15.90;99.90
16666;DHT22;8446;50.998;6.250;2022-09-29T12:16:01;15.70;99.90
16666;DHT22;8446;50.998;6.250;2022-09-29T12:18:32;15.10;99.90
16666;DHT22;8446;50.998;6.250;2022-09-29T12:21:02;15.30;99.90
16666;DHT22;8446;50.998;6.250;2022-09-29T12:23:31;16.20;99.90
16666;DHT22;8446;50.998;6.250;2022-09-29T12:26:06;16.10;99.90
16666;DHT22;8446;50.998;6.250;2022-09-29T12:28:39;16.00;99.90
16666;DHT22;8446;50.998;6.250;2022-09-29T12:31:11;15.60;99.90
16666;DHT22;8446;50.998;6.250;2022-09-29T12:33:40;15.50;99.90
16666;DHT22;8446;50.998;6.250;2022-09-29T12:36:24;15.70;99.90
16666;DHT22;8446;50.998;6.250;2022-09-29T12:39:19;16.20;99.90
16666;DHT22;8446;50.998;6.250;2022-09-29T12:41:51;16.20;99.90
16666;DHT22;8446;50.998;6.250;2022-09-29T12:44:26;16.20;99.90
16666;DHT22;8446;50.998;6.250;2022-09-29T12:47:00;16.70;99.90
16666;DHT22;8446;50.998;6.250;2022-09-29T12:49:33;16.00;99.90
16666;DHT22;8446;50.998;6.250;2022-09-29T12:52:09;16.00;99.90
16666;DHT22;8446;50.998;6.250;2022-09-29T12:54:41;15.80;99.90
16666;DHT22;8446;50.998;6.250;2022-09-29T12:57:14;15.80;99.90
16666;DHT22;8446;50.998;6.250;2022-09-29T12:59:44;15.70;99.90
16666;DHT22;8446;50.998;6.250;2022-09-29T13:02:42;15.80;99.90
16666;DHT22;8446;50.998;6.250;2022-09-29T13:05:25;15.60;99.90
16666;DHT22;8446;50.998;6.250;2022-09-29T13:08:29;15.40;99.90
16666;DHT22;8446;50.998;6.250;2022-09-29T13:11:29;15.70;99.90
16666;DHT22;8446;50.998;6.250;2022-09-29T13:14:26;15.80;99.90
16666;DHT22;8446;50.998;6.250;2022-09-29T13:17:06;15.70;99.90
16666;DHT22;8446;50.998;6.250;2022-09-29T13:20:20;15.40;99.90
16666;DHT22;8446;50.998;6.250;2022-09-29T13:23:03;15.30;99.90
16666;DHT22;8446;50.998;6.250;2022-09-29T13:25:41;15.40;99.90
16666;DHT22;8446;50.998;6.250;2022-09-29T13:28:26;15.50;99.90
16666;DHT22;8446;50.998;6.250;2022-09-29T13:30:58;15.10;99.90
16666;DHT22;8446;50.998;6.250;2022-09-29T13:33:27;14.80;99.90
16666;DHT22;8446;50.998;6.250;2022-09-29T13:35:54;14.60;99.90
16666;DHT22;8446;50.998;6.250;2022-09-29T13:38:23;15.00;99.90
16666;DHT22;8446;50.998;6.250;2022-09-29T13:41:12;14.90;99.90
16666;DHT22;8446;50.998;6.250;2022-09-29T13:44:03;14.80;99.90
16666;DHT22;8446;50.998;6.250;2022-09-29T13:46:39;14.90;99.90
16666;DHT22;8446;50.998;6.250;2022-09-29T13:49:26;15.00;99.90
16666;DHT22;8446;50.998;6.250;2022-09-29T13:54:30;15.30;99.90
16666;DHT22;8446;50.998;6.250;2022-09-29T14:00:16;15.40;99.90
16666;DHT22;8446;50.998;6.250;2022-09-29T14:02:48;15.60;99.90
16666;DHT22;8446;50.998;6.250;2022-09-29T14:05:39;15.60;99.90
16666;DHT22;8446;50.998;6.250;2022-09-29T14:08:28;15.80;99.90
16666;DHT22;8446;50.998;6.250;2022-09-29T14:11:19;15.90;99.90
16666;DHT22;8446;50.998;6.250;2022-09-29T14:13:54;16.20;99.90
16666;DHT22;8446;50.998;6.250;2022-09-29T14:16:42;16.30;99.90
16666;DHT22;8446;50.998;6.250;2022-09-29T14:19:34;16.20;99.90
16666;DHT22;8446;50.998;6.250;2022-09-29T14:22:03;16.20;99.90
16666;DHT22;8446;50.998;6.250;2022-09-29T14:24:45;16.40;99.90
16666;DHT22;8446;50.998;6.250;2022-09-29T14:27:31;16.50;99.90
16666;DHT22;8446;50.998;6.250;2022-09-29T14:30:14;16.20;99.90
16666;DHT22;8446;50.998;6.250;2022-09-29T14:32:47;17.00;99.90
16666;DHT22;8446;50.998;6.250;2022-09-29T14:35:22;16.60;99.90
16666;DHT22;8446;50.998;6.250;2022-09-29T14:37:57;16.90;99.90
16666;DHT22;8446;50.998;6.250;2022-09-29T14:40:26;17.00;99.90
16666;DHT22;8446;50.998;6.250;2022-09-29T14:43:03;16.80;99.90
16666;DHT22;8446;50.998;6.250;2022-09-29T14:45:34;17.00;99.90
16666;DHT22;8446;50.998;6.250;2022-09-29T14:48:38;17.10;99.90
16666;DHT22;8446;50.998;6.250;2022-09-29T14:51:32;17.20;99.90
16666;DHT22;8446;50.998;6.250;2022-09-29T14:54:25;17.50;99.90
16666;DHT22;8446;50.998;6.250;2022-09-29T14:57:02;17.80;99.90
16666;DHT22;8446;50.998;6.250;2022-09-29T14:59:43;17.60;99.90
16666;DHT22;8446;50.998;6.250;2022-09-29T15:02:19;18.10;99.90
16666;DHT22;8446;50.998;6.250;2022-09-29T15:04:47;18.20;99.90
16666;DHT22;8446;50.998;6.250;2022-09-29T15:07:17;17.30;99.90
16666;DHT22;8446;50.998;6.250;2022-09-29T15:09:47;18.80;99.90
16666;DHT22;8446;50.998;6.250;2022-09-29T15:12:15;18.60;99.90
16666;DHT22;8446;50.998;6.250;2022-09-29T15:14:45;18.60;99.90
16666;DHT22;8446;50.998;6.250;2022-09-29T15:17:21;17.90;99.90
16666;DHT22;8446;50.998;6.250;2022-09-29T15:19:59;17.60;99.90
16666;DHT22;8446;50.998;6.250;2022-09-29T15:22:58;17.50;99.90
16666;DHT22;8446;50.998;6.250;2022-09-29T15:25:29;17.60;99.90
16666;DHT22;8446;50.998;6.250;2022-09-29T15:27:59;18.20;99.90
16666;DHT22;8446;50.998;6.250;2022-09-29T15:30:28;17.60;99.90
16666;DHT22;8446;50.998;6.250;2022-09-29T15:33:13;17.80;99.90
16666;DHT22;8446;50.998;6.250;2022-09-29T15:35:43;17.60;99.90
16666;DHT22;8446;50.998;6.250;2022-09-29T15:38:27;18.70;99.90
16666;DHT22;8446;50.998;6.250;2022-09-29T15:41:01;17.80;99.90
16666;DHT22;8446;50.998;6.250;2022-09-29T15:46:00;16.80;99.90
16666;DHT22;8446;50.998;6.250;2022-09-29T15:50:56;16.00;99.90
16666;DHT22;8446;50.998;6.250;2022-09-29T15:53:25;15.60;99.90
16666;DHT22;8446;50.998;6.250;2022-09-29T15:55:53;15.70;99.90
16666;DHT22;8446;50.998;6.250;2022-09-29T15:58:34;16.40;99.90
16666;DHT22;8446;50.998;6.250;2022-09-29T16:01:03;15.80;99.90
16666;DHT22;8446;50.998;6.250;2022-09-29T16:03:36;15.40;99.90
16666;DHT22;8446;50.998;6.250;2022-09-29T16:06:12;15.90;99.90
16666;DHT22;8446;50.998;6.250;2022-09-29T16:08:44;16.40;99.90
16666;DHT22;8446;50.998;6.250;2022-09-29T16:11:20;15.70;99.90
16666;DHT22;8446;50.998;6.250;2022-09-29T16:13:51;15.60;99.90
16666;DHT22;8446;50.998;6.250;2022-09-29T16:16:25;15.50;99.90
16666;DHT22;8446;50.998;6.250;2022-09-29T16:18:57;15.10;99.90
16666;DHT22;8446;50.998;6.250;2022-09-29T16:21:31;14.90;99.90
16666;DHT22;8446;50.998;6.250;2022-09-29T16:24:04;14.90;99.90
16666;DHT22;8446;50.998;6.250;2022-09-29T16:26:36;15.00;99.90
16666;DHT22;8446;50.998;6.250;2022-09-29T16:29:21;15.00;99.90
16666;DHT22;8446;50.998;6.250;2022-09-29T16:31:49;14.80;99.90
16666;DHT22;8446;50.998;6.250;2022-09-29T16:34:24;14.60;99.90
16666;DHT22;8446;50.998;6.250;2022-09-29T16:36:54;14.50;99.90
16666;DHT22;8446;50.998;6.250;2022-09-29T16:39:25;14.40;99.90
16666;DHT22;8446;50.998;6.250;2022-09-29T16:41:53;14.50;99.90
16666;DHT22;8446;50.998;6.250;2022-09-29T16:44:26;14.20;99.90
16666;DHT22;8446;50.998;6.250;2022-09-29T16:46:56;14.20;99.90
16666;DHT22;8446;50.998;6.250;2022-09-29T16:49:26;14.10;99.90
16666;DHT22;8446;50.998;6.250;2022-09-29T16:51:56;14.10;99.90